Time;durP1;ratioP1;P1;durP2;ratioP2;P2;SDS_P1;SDS_P2;PMS_P1;PMS_P2;Temp;Humidity;BMP_temperature;BMP_pressure;BME280_temperature;BME280_humidity;BME280_pressure;Samples;Min_cycle;Max_cycle;Signal;HPM_P1;HPM_P2
2022/05/19 00:01:18;;;;;;;3.03;2.55;;;;;;;9.98;67.85;95954.75;5114765;28;20209;-65
2022/05/19 00:03:45;;;;;;;2.70;2.30;;;;;;;9.98;68.47;95954.75;5116522;28;20202;-65
2022/05/19 00:06:13;;;;;;;3.40;2.80;;;;;;;10.00;68.06;95947.78;5117572;28;20199;-65
2022/05/19 00:08:39;;;;;;;3.13;2.42;;;;;;;10.02;67.92;95951.03;5117789;28;20195;-65
2022/05/19 00:11:09;;;;;;;3.25;3.00;;;;;;;9.98;68.23;95943.72;5118459;28;20206;-65
2022/05/19 00:13:36;;;;;;;2.70;2.50;;;;;;;9.99;68.08;95953.63;5117984;28;20218;-65
2022/05/19 00:16:06;;;;;;;2.97;2.67;;;;;;;9.95;68.53;95947.13;5117557;28;20265;-65
2022/05/19 00:18:34;;;;;;;2.83;2.60;;;;;;;9.93;68.56;95946.66;5117352;28;20298;-65
2022/05/19 00:21:01;;;;;;;2.90;2.63;;;;;;;9.89;68.63;95947.31;5117252;28;20192;-65
2022/05/19 00:23:27;;;;;;;2.83;2.63;;;;;;;9.86;68.25;95947.16;5117911;28;20218;-65
2022/05/19 00:25:55;;;;;;;3.05;2.40;;;;;;;9.75;67.81;95954.94;5118090;28;20191;-65
2022/05/19 00:28:22;;;;;;;3.78;2.38;;;;;;;9.72;68.81;95946.53;5118061;28;20188;-65
2022/05/19 00:30:48;;;;;;;4.25;2.30;;;;;;;9.73;68.85;95950.88;5117900;28;20201;-65
2022/05/19 00:33:17;;;;;;;2.63;2.30;;;;;;;9.75;69.11;95956.88;5118259;28;20184;-65
2022/05/19 00:35:44;;;;;;;2.70;2.42;;;;;;;9.69;68.48;95960.94;5118008;28;20182;-65
2022/05/19 00:38:11;;;;;;;2.67;2.33;;;;;;;9.59;68.32;95962.09;5118432;28;20194;-65
2022/05/19 00:40:38;;;;;;;3.42;2.35;;;;;;;9.50;67.77;95961.28;5117049;28;20516;-65
2022/05/19 00:43:05;;;;;;;2.58;2.38;;;;;;;9.44;68.18;95965.31;5117086;28;20618;-65
2022/05/19 00:45:40;;;;;;;2.42;2.10;;;;;;;9.35;68.06;95966.13;5116992;28;20218;-64
2022/05/19 00:48:13;;;;;;;2.45;2.25;;;;;;;9.32;68.49;95972.28;5118123;28;20191;-64
2022/05/19 00:50:44;;;;;;;2.50;2.10;;;;;;;9.31;68.57;95973.41;5117935;28;20198;-64
2022/05/19 00:53:15;;;;;;;2.97;2.35;;;;;;;9.36;69.19;95975.19;5116943;28;20196;-64
2022/05/19 00:55:46;;;;;;;3.88;2.38;;;;;;;9.38;68.87;95978.44;5117717;28;20204;-64
2022/05/19 00:58:14;;;;;;;2.60;2.40;;;;;;;9.38;69.23;95973.75;5117477;28;20560;-64
2022/05/19 01:00:41;;;;;;;2.83;2.55;;;;;;;9.37;68.98;95979.59;5117565;28;20180;-64
2022/05/19 01:03:08;;;;;;;2.60;2.40;;;;;;;9.36;68.98;95978.75;5117385;28;20191;-64
2022/05/19 01:05:38;;;;;;;3.25;2.45;;;;;;;9.38;69.52;95986.72;5116994;28;20204;-64
2022/05/19 01:08:12;;;;;;;3.13;2.67;;;;;;;9.39;68.83;95975.34;5117835;28;20184;-64
2022/05/19 01:10:39;;;;;;;2.67;2.38;;;;;;;9.39;69.07;95991.88;5117885;28;20509;-64
2022/05/19 01:13:07;;;;;;;3.13;2.80;;;;;;;9.40;68.85;95988.00;5116919;28;20615;-64
2022/05/19 01:15:34;;;;;;;2.88;2.40;;;;;;;9.40;68.80;95987.19;5117571;28;20188;-64
2022/05/19 01:18:02;;;;;;;2.60;2.40;;;;;;;9.34;68.07;95986.53;5117029;28;20658;-64
2022/05/19 01:20:29;;;;;;;2.75;2.55;;;;;;;9.29;69.07;95992.19;5116146;28;20203;-64
2022/05/19 01:23:00;;;;;;;3.05;2.65;;;;;;;9.25;68.57;95995.91;5117242;28;20184;-65
2022/05/19 01:25:35;;;;;;;4.43;2.58;;;;;;;9.24;68.42;95992.34;5117154;28;20194;-65
2022/05/19 01:28:04;;;;;;;3.00;2.70;;;;;;;9.17;68.95;95992.03;5117128;28;20187;-65
2022/05/19 01:30:31;;;;;;;2.92;2.33;;;;;;;9.16;68.31;95991.22;5117087;28;20184;-65
2022/05/19 01:32:57;;;;;;;2.67;2.45;;;;;;;9.13;69.01;95993.81;5116709;28;20194;-65
2022/05/19 01:35:24;;;;;;;3.15;2.50;;;;;;;9.12;68.40;95995.75;5116744;28;20188;-65
2022/05/19 01:37:51;;;;;;;3.40;2.65;;;;;;;9.10;68.34;95997.19;5116901;28;20215;-64
2022/05/19 01:40:35;;;;;;;2.58;2.30;;;;;;;9.03;68.11;95991.34;5116952;28;20196;-64
2022/05/19 01:43:10;;;;;;;2.72;2.40;;;;;;;9.05;68.88;95997.34;5096101;28;20509;-64
2022/05/19 01:45:45;;;;;;;3.42;2.42;;;;;;;8.98;68.32;96005.28;5096380;28;20202;-65
2022/05/19 01:48:16;;;;;;;4.68;2.70;;;;;;;8.94;68.59;96005.09;5095655;28;20184;-65
2022/05/19 01:50:48;;;;;;;2.80;2.50;;;;;;;8.95;68.89;96003.16;5096306;28;20181;-65
2022/05/19 01:53:22;;;;;;;3.17;2.47;;;;;;;8.95;68.51;96003.97;5096323;28;20202;-65
2022/05/19 01:55:54;;;;;;;2.30;2.10;;;;;;;8.97;68.64;96006.38;5096295;28;20192;-65
2022/05/19 01:58:27;;;;;;;3.25;2.53;;;;;;;9.00;68.52;96001.03;5095275;28;20200;-65
2022/05/19 02:00:57;;;;;;;2.88;2.58;;;;;;;9.03;68.12;96010.59;5095865;28;20196;-65
2022/05/19 02:03:29;;;;;;;4.40;2.50;;;;;;;9.04;68.86;96012.22;5096410;28;20185;-65
2022/05/19 02:05:59;;;;;;;3.42;2.40;;;;;;;9.00;68.91;96014.00;5095778;28;20188;-65
2022/05/19 02:08:28;;;;;;;2.97;2.70;;;;;;;8.98;69.36;96011.56;5095767;28;20596;-64
2022/05/19 02:10:57;;;;;;;2.85;2.55;;;;;;;9.00;69.54;96020.31;5095948;28;20190;-65
2022/05/19 02:13:25;;;;;;;4.57;2.55;;;;;;;9.04;69.34;96009.47;5095007;28;20207;-65
2022/05/19 02:15:54;;;;;;;2.50;2.30;;;;;;;9.06;69.36;96020.97;5095582;28;20191;-65
2022/05/19 02:18:23;;;;;;;2.50;2.30;;;;;;;9.05;69.06;96013.88;5095452;28;20219;-65
2022/05/19 02:20:50;;;;;;;4.82;2.40;;;;;;;9.01;69.08;96012.88;5095449;28;20202;-65
2022/05/19 02:23:17;;;;;;;3.25;2.33;;;;;;;8.93;68.94;96019.97;5095725;28;20545;-65
2022/05/19 02:25:46;;;;;;;2.60;2.40;;;;;;;8.86;68.86;96017.69;5095044;28;20185;-65
2022/05/19 02:28:16;;;;;;;3.38;2.78;;;;;;;8.85;69.07;96018.81;5095728;28;20181;-65
2022/05/19 02:30:45;;;;;;;5.32;2.40;;;;;;;8.85;69.38;96009.75;5095598;28;20200;-65
2022/05/19 02:33:13;;;;;;;3.45;2.33;;;;;;;8.89;69.40;96019.78;5095635;28;20185;-65
2022/05/19 02:35:40;;;;;;;4.93;2.38;;;;;;;8.92;69.61;96012.84;5094729;28;20208;-64
2022/05/19 02:38:07;;;;;;;4.30;2.50;;;;;;;8.90;69.64;96015.94;5095227;28;20666;-64
2022/05/19 02:40:36;;;;;;;2.95;2.60;;;;;;;8.87;69.52;96015.75;5095349;28;20196;-64
2022/05/19 02:43:04;;;;;;;5.03;2.50;;;;;;;8.83;69.65;96012.84;5114897;28;20200;-64
2022/05/19 02:45:31;;;;;;;3.45;2.50;;;;;;;8.85;70.13;96009.75;5115338;28;20231;-64
2022/05/19 02:48:00;;;;;;;4.32;2.72;;;;;;;8.85;69.60;96021.56;5115801;28;20191;-64
2022/05/19 02:50:27;;;;;;;3.28;2.65;;;;;;;8.84;69.70;96019.13;5115797;28;20195;-64
2022/05/19 02:52:54;;;;;;;3.88;2.70;;;;;;;8.80;69.96;96020.91;5114796;28;20200;-64
2022/05/19 02:55:21;;;;;;;2.60;2.40;;;;;;;8.77;69.58;96022.34;5115058;28;20188;-64
2022/05/19 02:57:48;;;;;;;3.40;2.90;;;;;;;8.75;69.95;96027.38;5114653;28;20222;-64
2022/05/19 03:00:18;;;;;;;3.17;2.78;;;;;;;8.71;70.16;96020.06;5114721;28;20188;-64
2022/05/19 03:02:45;;;;;;;5.80;2.65;;;;;;;8.73;70.54;96023.31;5114690;28;20573;-64
2022/05/19 03:05:15;;;;;;;4.00;2.85;;;;;;;8.75;70.50;96021.88;5115637;28;20183;-64
2022/05/19 03:07:42;;;;;;;5.57;2.90;;;;;;;8.75;70.57;96023.78;5115326;28;20191;-64
2022/05/19 03:10:10;;;;;;;4.63;3.97;;;;;;;8.79;71.08;96024.78;5114640;28;20535;-64
2022/05/19 03:12:37;;;;;;;6.30;4.70;;;;;;;8.81;71.14;96026.06;5115506;28;20180;-64
2022/05/19 03:15:05;;;;;;;8.85;7.10;;;;;;;8.79;71.15;96022.84;5115503;28;20210;-64
2022/05/19 03:17:31;;;;;;;5.88;4.25;;;;;;;8.76;70.87;96028.19;5114773;28;20267;-64
2022/05/19 03:19:58;;;;;;;4.60;3.17;;;;;;;8.67;70.99;96028.94;5114604;28;20195;-66
2022/05/19 03:22:27;;;;;;;3.35;3.05;;;;;;;8.61;70.38;96021.97;5114606;28;20197;-66
2022/05/19 03:24:54;;;;;;;2.97;2.78;;;;;;;8.62;70.15;96026.34;5115088;28;20185;-65
2022/05/19 03:27:21;;;;;;;3.20;2.90;;;;;;;8.60;70.12;96028.56;5115437;28;20184;-65
2022/05/19 03:29:48;;;;;;;3.40;3.10;;;;;;;8.58;70.07;96036.34;5115065;28;20180;-65
2022/05/19 03:32:15;;;;;;;4.43;2.90;;;;;;;8.60;70.17;96041.53;5115328;28;20184;-65
2022/05/19 03:34:42;;;;;;;4.70;2.90;;;;;;;8.65;70.12;96041.41;5114299;28;20195;-66
2022/05/19 03:37:09;;;;;;;3.45;2.88;;;;;;;8.65;70.25;96044.16;5116117;28;20211;-65
2022/05/19 03:39:38;;;;;;;4.18;3.00;;;;;;;8.63;70.25;96051.88;5119115;28;20542;-65
2022/05/19 03:42:06;;;;;;;3.97;3.47;;;;;;;8.66;70.58;96057.56;5118934;28;20689;-65
2022/05/19 03:44:33;;;;;;;5.82;4.68;;;;;;;8.67;70.40;96055.63;5118812;28;20592;-65
2022/05/19 03:47:00;;;;;;;5.82;4.78;;;;;;;8.69;70.97;96061.63;5118165;28;20250;-65
2022/05/19 03:49:27;;;;;;;6.85;5.65;;;;;;;8.73;71.16;96067.31;5118204;28;20527;-66
2022/05/19 03:51:54;;;;;;;9.00;5.75;;;;;;;8.77;70.79;96069.09;5118702;28;20204;-66
2022/05/19 03:54:21;;;;;;;6.97;5.03;;;;;;;8.81;71.60;96074.78;5118083;28;20200;-66
2022/05/19 03:56:49;;;;;;;8.02;5.47;;;;;;;8.88;71.25;96072.38;5118046;28;20203;-72
2022/05/19 03:59:16;;;;;;;7.78;6.03;;;;;;;8.94;71.38;96078.56;5118519;28;20187;-66
2022/05/19 04:01:43;;;;;;;6.68;6.07;;;;;;;8.95;70.99;96075.50;5118822;28;20188;-66
2022/05/19 04:04:10;;;;;;;8.02;6.82;;;;;;;8.99;71.33;96087.47;5118295;28;20641;-66
2022/05/19 04:06:37;;;;;;;7.82;6.82;;;;;;;8.98;71.83;96077.63;5117778;28;20203;-66
2022/05/19 04:09:05;;;;;;;8.93;7.70;;;;;;;8.92;71.28;96087.13;5118958;28;20206;-66
2022/05/19 04:11:32;;;;;;;8.02;6.72;;;;;;;8.89;71.69;96079.50;5117442;28;20207;-66
2022/05/19 04:14:00;;;;;;;7.82;7.07;;;;;;;8.92;72.03;96087.94;5118492;28;20180;-67
2022/05/19 04:16:27;;;;;;;8.13;7.20;;;;;;;8.96;71.58;96085.38;5118355;28;20607;-66
2022/05/19 04:18:54;;;;;;;9.18;7.15;;;;;;;8.98;71.90;96087.81;5118137;28;20550;-66
2022/05/19 04:21:21;;;;;;;16.38;7.32;;;;;;;8.98;71.51;96091.38;5118724;28;20180;-66
2022/05/19 04:23:48;;;;;;;7.63;6.85;;;;;;;8.99;72.03;96084.72;5118484;28;20184;-66
2022/05/19 04:26:14;;;;;;;7.43;6.75;;;;;;;8.98;71.31;96094.13;5118596;28;20188;-66
2022/05/19 04:28:41;;;;;;;7.93;7.13;;;;;;;8.95;71.61;96088.44;5117541;28;20189;-66
2022/05/19 04:31:09;;;;;;;8.95;7.05;;;;;;;9.01;72.11;96084.44;5118536;28;20184;-66
2022/05/19 04:33:36;;;;;;;7.78;7.07;;;;;;;9.02;72.18;96094.31;5117129;28;20526;-66
2022/05/19 04:36:04;;;;;;;8.10;7.13;;;;;;;9.06;71.91;96103.53;5118181;28;20195;-66
2022/05/19 04:38:31;;;;;;;7.75;6.93;;;;;;;9.02;71.71;96095.09;5117338;28;20211;-66
2022/05/19 04:41:01;;;;;;;7.60;6.90;;;;;;;9.06;71.33;96098.84;5117016;28;20239;-66
2022/05/19 04:43:28;;;;;;;7.47;6.88;;;;;;;9.04;71.40;96101.13;5117542;28;20196;-66
2022/05/19 04:45:56;;;;;;;8.02;7.20;;;;;;;9.07;72.07;96102.41;5118329;28;20187;-66
2022/05/19 04:48:25;;;;;;;7.97;7.20;;;;;;;9.07;71.37;96094.94;5117114;28;20191;-66
2022/05/19 04:50:53;;;;;;;8.45;7.65;;;;;;;9.13;71.08;96101.94;5117803;28;20191;-66
2022/05/19 04:53:19;;;;;;;9.40;7.50;;;;;;;9.14;71.73;96097.25;5117263;28;20646;-66
2022/05/19 04:55:47;;;;;;;8.60;7.72;;;;;;;9.14;71.63;96100.00;5117406;28;20191;-66
2022/05/19 04:58:14;;;;;;;8.18;7.43;;;;;;;9.20;72.62;96104.25;5117668;28;20282;-66
2022/05/19 05:00:41;;;;;;;9.93;7.68;;;;;;;9.25;72.23;96108.78;5117612;28;20210;-66
2022/05/19 05:03:08;;;;;;;8.23;7.40;;;;;;;9.33;72.83;96108.81;5117688;28;20188;-66
2022/05/19 05:05:36;;;;;;;8.38;7.22;;;;;;;9.37;72.73;96118.06;5117797;28;20199;-66
2022/05/19 05:08:03;;;;;;;7.82;7.22;;;;;;;9.45;72.61;96112.91;5117692;28;20184;-66
2022/05/19 05:10:30;;;;;;;8.98;8.05;;;;;;;9.45;72.17;96115.66;5117516;28;20190;-66
2022/05/19 05:12:57;;;;;;;8.38;7.68;;;;;;;9.42;72.48;96119.84;5117689;28;20192;-66
2022/05/19 05:15:24;;;;;;;8.75;7.43;;;;;;;9.43;71.70;96115.97;5117629;28;20180;-66
2022/05/19 05:17:51;;;;;;;8.65;7.75;;;;;;;9.46;71.46;96115.31;5116666;28;20211;-66
2022/05/19 05:20:17;;;;;;;8.90;7.80;;;;;;;9.51;71.79;96114.34;5117324;28;20176;-66
2022/05/19 05:22:45;;;;;;;8.52;7.72;;;;;;;9.53;72.19;96118.41;5117275;28;20180;-66
2022/05/19 05:25:14;;;;;;;8.77;7.85;;;;;;;9.51;71.88;96117.09;5116154;28;20619;-66
2022/05/19 05:27:41;;;;;;;8.25;7.47;;;;;;;9.55;72.07;96126.34;5116978;28;20192;-66
2022/05/19 05:30:10;;;;;;;7.90;7.20;;;;;;;9.54;71.97;96120.03;5117147;28;20188;-66
2022/05/19 05:32:37;;;;;;;8.93;8.13;;;;;;;9.55;71.72;96115.34;5117203;28;20175;-66
2022/05/19 05:35:05;;;;;;;8.48;7.70;;;;;;;9.55;72.02;96118.91;5116850;28;20256;-66
2022/05/19 05:37:32;;;;;;;7.85;7.15;;;;;;;9.53;71.80;96123.94;5116963;28;20212;-66
2022/05/19 05:40:01;;;;;;;9.38;6.97;;;;;;;9.53;72.06;96123.94;5117339;28;20188;-66
2022/05/19 05:42:28;;;;;;;10.55;6.57;;;;;;;9.59;71.44;96130.09;5115998;28;20237;-66
2022/05/19 05:44:54;;;;;;;6.90;6.20;;;;;;;9.58;71.37;96137.53;5117007;28;20199;-66
2022/05/19 05:47:21;;;;;;;7.13;6.53;;;;;;;9.59;71.72;96132.88;5116573;28;20532;-66
2022/05/19 05:49:48;;;;;;;8.25;7.40;;;;;;;9.60;72.30;96134.47;5116516;28;20216;-66
2022/05/19 05:52:15;;;;;;;7.03;6.43;;;;;;;9.65;71.69;96131.56;5116050;28;20519;-66
2022/05/19 05:54:42;;;;;;;7.20;6.07;;;;;;;9.62;71.51;96141.28;5115498;28;20196;-66
2022/05/19 05:57:14;;;;;;;7.95;6.05;;;;;;;9.61;71.34;96134.16;5116991;28;20214;-66
2022/05/19 05:59:41;;;;;;;6.20;5.60;;;;;;;9.63;71.88;96137.41;5115195;28;20203;-66
2022/05/19 06:02:08;;;;;;;5.75;5.25;;;;;;;9.67;71.83;96134.00;5115005;28;20211;-66
2022/05/19 06:04:36;;;;;;;5.90;5.40;;;;;;;9.71;71.78;96135.00;5115715;28;20200;-66
2022/05/19 06:07:03;;;;;;;8.02;6.07;;;;;;;9.81;71.96;96138.25;5115616;28;20248;-66
2022/05/19 06:09:30;;;;;;;6.70;6.00;;;;;;;9.89;72.72;96136.63;5115949;28;20206;-66
2022/05/19 06:11:57;;;;;;;6.53;5.93;;;;;;;9.88;72.36;96141.34;5116578;28;20184;-66
2022/05/19 06:14:26;;;;;;;7.22;6.22;;;;;;;9.94;71.85;96144.72;5116433;28;20183;-66
2022/05/19 06:16:52;;;;;;;6.18;5.57;;;;;;;9.93;71.69;96131.28;5115320;28;20191;-66
2022/05/19 06:19:19;;;;;;;7.75;6.18;;;;;;;9.89;71.25;96136.63;5115485;28;20214;-66
2022/05/19 06:21:47;;;;;;;7.18;5.88;;;;;;;9.95;72.58;96145.53;5116401;28;20184;-66
2022/05/19 06:24:13;;;;;;;6.70;5.55;;;;;;;10.00;71.96;96146.22;5115687;28;20199;-67
2022/05/19 06:26:40;;;;;;;5.65;5.07;;;;;;;10.05;71.84;96140.53;5115365;28;20203;-66
2022/05/19 06:29:07;;;;;;;6.80;6.10;;;;;;;10.11;71.34;96138.44;5115748;28;20234;-66
2022/05/19 06:31:36;;;;;;;7.43;6.75;;;;;;;10.21;71.61;96140.88;5115967;28;20207;-66
2022/05/19 06:34:04;;;;;;;8.27;6.68;;;;;;;10.27;71.30;96136.81;5115585;28;20196;-66
2022/05/19 06:36:30;;;;;;;8.77;6.70;;;;;;;10.29;70.81;96144.78;5115006;28;20236;-66
2022/05/19 06:38:57;;;;;;;7.00;6.32;;;;;;;10.31;71.70;96142.50;5115756;28;20212;-66
2022/05/19 06:44:08;;;;;;;5.90;5.20;;;;;;;10.36;70.97;96140.41;5115235;28;20195;-66
2022/05/19 06:46:36;;;;;;;7.80;6.03;;;;;;;10.43;71.39;96139.13;5116062;28;20580;-66
2022/05/19 06:49:04;;;;;;;7.28;6.15;;;;;;;10.51;70.82;96146.56;5115854;28;20191;-66
2022/05/19 06:51:32;;;;;;;6.65;5.45;;;;;;;10.56;70.65;96143.63;5115138;28;20216;-66
2022/05/19 06:53:59;;;;;;;6.20;5.60;;;;;;;10.57;69.62;96153.53;5115344;28;20214;-66
2022/05/19 06:56:26;;;;;;;5.70;5.10;;;;;;;10.60;69.07;96141.81;5115924;28;20256;-66
2022/05/19 06:58:52;;;;;;;5.85;5.03;;;;;;;10.66;68.78;96140.53;5114741;28;20218;-66
2022/05/19 07:01:19;;;;;;;5.25;4.57;;;;;;;10.69;68.56;96139.88;5114676;28;20204;-66
2022/05/19 07:03:47;;;;;;;5.78;4.30;;;;;;;10.75;67.40;96143.28;5116120;28;20302;-66
2022/05/19 07:06:14;;;;;;;5.35;3.88;;;;;;;10.79;65.84;96144.25;5115904;28;20187;-66
2022/05/19 07:08:41;;;;;;;4.13;3.60;;;;;;;10.86;64.79;96141.81;5114771;28;20196;-66
2022/05/19 07:11:24;;;;;;;4.13;3.10;;;;;;;10.90;65.60;96148.28;5115068;28;20223;-66
2022/05/19 07:13:52;;;;;;;2.78;2.40;;;;;;;10.88;61.88;96147.78;5119324;28;20248;-66
2022/05/19 07:16:19;;;;;;;3.50;2.80;;;;;;;10.95;60.97;96150.84;5119114;28;20229;-66
2022/05/19 07:18:46;;;;;;;3.17;2.30;;;;;;;11.06;61.44;96143.84;5119949;28;20222;-66
2022/05/19 07:21:14;;;;;;;3.42;2.78;;;;;;;11.21;63.20;96145.25;5119750;28;20195;-66
2022/05/19 07:23:41;;;;;;;4.00;3.60;;;;;;;11.25;61.73;96142.63;5119049;28;20248;-66
2022/05/19 07:26:08;;;;;;;4.60;2.88;;;;;;;11.25;59.72;96139.88;5119735;28;20199;-66
2022/05/19 07:28:34;;;;;;;4.00;3.20;;;;;;;11.26;59.61;96135.97;5119811;28;20191;-66
2022/05/19 07:31:01;;;;;;;4.90;3.65;;;;;;;11.23;59.39;96134.69;5118469;28;20195;-66
2022/05/19 07:33:29;;;;;;;3.92;3.40;;;;;;;11.21;59.14;96136.94;5119678;28;20646;-66
2022/05/19 07:35:56;;;;;;;5.47;3.38;;;;;;;11.23;59.74;96137.44;5119840;28;20183;-66
2022/05/19 07:38:24;;;;;;;5.22;4.07;;;;;;;11.34;59.51;96132.38;5118859;28;20215;-66
2022/05/19 07:40:54;;;;;;;5.20;3.35;;;;;;;11.44;59.44;96134.75;5119096;28;20214;-66
2022/05/19 07:43:41;;;;;;;2.90;2.60;;;;;;;11.49;57.31;96133.75;5119007;28;20192;-66
2022/05/19 07:46:10;;;;;;;5.50;2.90;;;;;;;11.55;57.73;96132.44;5118797;28;20506;-66
2022/05/19 07:48:38;;;;;;;3.42;2.83;;;;;;;11.60;57.41;96135.00;5118286;28;20207;-66
2022/05/19 07:51:05;;;;;;;4.50;3.17;;;;;;;11.65;56.46;96133.97;5118788;28;20203;-66
2022/05/19 07:53:33;;;;;;;4.32;2.70;;;;;;;11.74;56.43;96132.00;5118207;28;20199;-66
2022/05/19 07:56:00;;;;;;;5.55;3.72;;;;;;;11.81;56.64;96135.84;5118257;28;20199;-66
2022/05/19 07:58:29;;;;;;;5.10;3.58;;;;;;;11.91;56.29;96137.44;5118271;28;20208;-66
2022/05/19 08:00:56;;;;;;;3.80;3.40;;;;;;;11.99;54.66;96133.00;5119055;28;20184;-66
2022/05/19 08:03:24;;;;;;;2.10;2.00;;;;;;;12.13;53.40;96133.56;5118841;28;20278;-66
2022/05/19 08:05:52;;;;;;;3.38;1.88;;;;;;;12.29;53.66;96136.50;5118199;28;20294;-66
2022/05/19 08:08:20;;;;;;;3.75;2.28;;;;;;;12.48;57.32;96134.06;5118281;28;20286;-66
2022/05/19 08:10:48;;;;;;;2.95;1.92;;;;;;;12.71;55.89;96130.94;5117927;28;20203;-66
2022/05/19 08:16:00;;;;;;;1.75;1.63;;;;;;;12.84;49.73;96129.00;5117853;28;20190;-66
2022/05/19 08:18:27;;;;;;;2.50;1.88;;;;;;;12.90;49.10;96128.44;5118890;27;20218;-66
2022/05/19 08:20:57;;;;;;;2.33;2.13;;;;;;;12.96;50.18;96117.94;5118658;28;20180;-65
2022/05/19 08:23:25;;;;;;;2.03;1.58;;;;;;;13.06;48.90;96122.25;5117340;28;20180;-66
2022/05/19 08:25:54;;;;;;;1.90;1.70;;;;;;;13.14;49.62;96124.91;5118648;28;20292;-65
2022/05/19 08:28:28;;;;;;;1.73;1.63;;;;;;;13.30;51.90;96127.88;5118747;28;20180;-66
2022/05/19 08:30:56;;;;;;;3.03;1.70;;;;;;;13.45;49.83;96123.59;5118298;28;20299;-66
2022/05/19 08:33:23;;;;;;;2.90;1.70;;;;;;;13.49;48.58;96121.75;5117676;28;20196;-66
2022/05/19 08:35:51;;;;;;;2.13;1.83;;;;;;;13.55;48.38;96120.38;5118490;28;20625;-67
2022/05/19 08:38:19;;;;;;;1.52;1.42;;;;;;;13.59;46.73;96117.72;5117033;28;20298;-66
2022/05/19 08:40:48;;;;;;;3.53;2.00;;;;;;;13.70;46.53;96116.91;5117953;28;20202;-66
2022/05/19 08:43:19;;;;;;;4.97;2.13;;;;;;;13.77;45.59;96119.09;5116868;28;20192;-66
2022/05/19 08:45:50;;;;;;;2.33;1.73;;;;;;;13.94;45.24;96123.56;5117390;28;20290;-66
2022/05/19 08:48:21;;;;;;;2.45;1.45;;;;;;;14.07;44.17;96116.84;5117747;28;20210;-66
2022/05/19 08:50:51;;;;;;;5.00;1.40;;;;;;;14.15;44.10;96112.31;5117951;28;20674;-66
2022/05/19 08:53:20;;;;;;;2.97;1.70;;;;;;;14.28;43.65;96108.34;5117426;28;20216;-66
2022/05/19 08:55:51;;;;;;;2.35;1.73;;;;;;;14.40;43.06;96116.63;5117809;28;20206;-66
2022/05/19 08:58:35;;;;;;;2.55;1.45;;;;;;;14.45;41.64;96108.06;5117226;28;20290;-66
2022/05/19 09:01:05;;;;;;;1.90;1.63;;;;;;;14.50;41.36;96103.47;5117018;28;20207;-66
2022/05/19 09:03:37;;;;;;;2.72;1.70;;;;;;;14.62;40.01;96098.66;5116491;28;20290;-66
2022/05/19 09:06:21;;;;;;;3.63;1.90;;;;;;;14.70;41.23;96091.31;5117382;28;20199;-66
2022/05/19 09:09:03;;;;;;;2.17;1.63;;;;;;;14.88;42.13;96089.03;5116675;28;20194;-66
2022/05/19 09:11:39;;;;;;;1.67;1.58;;;;;;;15.02;40.31;96088.59;5116868;28;20226;-67
2022/05/19 09:14:18;;;;;;;1.30;1.20;;;;;;;15.14;37.82;96077.41;5116603;28;20183;-66
2022/05/19 09:16:45;;;;;;;2.08;1.45;;;;;;;15.30;40.00;96078.22;5117401;28;20183;-66
2022/05/19 09:19:14;;;;;;;1.65;1.50;;;;;;;15.38;40.00;96073.66;5117137;28;20210;-66
2022/05/19 09:21:42;;;;;;;1.60;1.50;;;;;;;15.50;39.58;96067.19;5117102;28;20203;-66
2022/05/19 09:24:09;;;;;;;2.25;1.52;;;;;;;15.56;40.36;96069.31;5116508;28;20195;-65
2022/05/19 09:26:45;;;;;;;2.42;1.50;;;;;;;15.59;39.41;96059.47;5117008;28;20196;-66
2022/05/19 09:29:16;;;;;;;2.25;1.50;;;;;;;15.77;42.30;96057.94;5116035;28;20192;-66
2022/05/19 09:31:47;;;;;;;2.92;1.70;;;;;;;15.93;42.01;96060.66;5099591;28;20296;-66
2022/05/19 09:34:14;;;;;;;1.95;1.60;;;;;;;16.01;39.56;96056.06;5116531;28;20545;-66
2022/05/19 09:36:54;;;;;;;1.85;1.75;;;;;;;16.06;39.03;96055.78;5116994;28;20195;-66
2022/05/19 09:39:21;;;;;;;2.78;1.70;;;;;;;16.17;40.94;96064.38;5116992;28;20230;-66
2022/05/19 09:41:51;;;;;;;2.45;1.70;;;;;;;16.18;38.69;96060.41;5116599;28;20231;-66
2022/05/19 09:44:34;;;;;;;3.65;1.70;;;;;;;16.28;40.91;96055.06;5116602;28;20627;-66
2022/05/19 09:47:17;;;;;;;3.38;1.80;;;;;;;16.37;40.36;96052.06;5115900;28;20227;-66
2022/05/19 09:49:50;;;;;;;3.03;1.73;;;;;;;16.46;38.90;96046.28;5115873;28;20223;-66
2022/05/19 09:52:23;;;;;;;2.38;1.70;;;;;;;16.52;38.17;96042.84;5116833;28;20188;-66
2022/05/19 09:54:55;;;;;;;2.08;1.52;;;;;;;16.66;39.81;96042.28;5115825;28;20194;-66
2022/05/19 09:57:26;;;;;;;3.17;2.00;;;;;;;16.87;42.14;96043.91;5116839;28;20196;-66
2022/05/19 09:59:55;;;;;;;2.25;2.05;;;;;;;17.03;39.12;96033.44;5115704;28;20208;-66
2022/05/19 10:02:31;;;;;;;2.00;1.80;;;;;;;17.07;40.01;96029.56;5115628;28;20191;-67
2022/05/19 10:04:59;;;;;;;4.18;2.20;;;;;;;17.13;39.60;96027.25;5115569;28;20530;-66
2022/05/19 10:07:29;;;;;;;2.28;1.80;;;;;;;17.23;40.13;96034.97;5115620;28;20204;-66
2022/05/19 10:09:58;;;;;;;3.58;1.92;;;;;;;17.20;38.86;96034.94;5116158;28;20184;-66
2022/05/19 10:12:28;;;;;;;2.00;1.73;;;;;;;17.31;38.92;96033.91;5116078;28;20633;-66
2022/05/19 10:15:12;;;;;;;3.28;1.70;;;;;;;17.42;37.69;96033.28;5116278;28;20216;-66
2022/05/19 10:17:44;;;;;;;2.17;1.80;;;;;;;17.51;37.81;96025.50;5115957;28;20611;-66
2022/05/19 10:20:17;;;;;;;1.83;1.73;;;;;;;17.61;37.79;96027.63;5116372;28;20222;-66
2022/05/19 10:22:54;;;;;;;2.45;1.92;;;;;;;17.66;36.66;96021.72;5116212;28;20276;-66
2022/05/19 10:25:32;;;;;;;3.55;1.70;;;;;;;17.75;38.18;96013.91;5115853;28;20245;-66
2022/05/19 10:31:04;;;;;;;3.97;2.15;;;;;;;18.05;40.03;96018.72;5115763;28;20172;-66
2022/05/19 10:33:40;;;;;;;1.90;1.80;;;;;;;17.95;35.68;96008.22;5115022;28;20219;-66
2022/05/19 10:36:19;;;;;;;1.95;1.85;;;;;;;17.78;37.15;96015.94;5116007;28;20180;-66
2022/05/19 10:38:55;;;;;;;1.83;1.70;;;;;;;17.69;35.68;96009.03;5115824;28;20184;-66
2022/05/19 10:41:37;;;;;;;1.90;1.80;;;;;;;17.78;35.93;96007.56;5115571;28;20227;-66
2022/05/19 10:44:27;;;;;;;1.67;1.52;;;;;;;17.96;37.10;95998.66;5114973;28;20211;-66
2022/05/19 10:47:00;;;;;;;1.70;1.60;;;;;;;18.05;36.49;95999.19;5114179;28;20196;-66
2022/05/19 10:49:45;;;;;;;1.70;1.60;;;;;;;18.17;34.52;95989.75;5115068;28;20241;-66
2022/05/19 10:52:17;;;;;;;2.95;1.80;;;;;;;18.36;38.24;95988.78;5115869;28;20190;-66
2022/05/19 10:54:55;;;;;;;3.25;2.03;;;;;;;18.59;37.19;95989.47;5114985;28;20211;-66
2022/05/19 10:57:34;;;;;;;2.08;1.80;;;;;;;18.68;36.43;95984.34;5115801;28;20213;-66
2022/05/19 11:00:09;;;;;;;1.60;1.50;;;;;;;18.83;37.40;95979.75;5114465;28;20280;-66
2022/05/19 11:02:51;;;;;;;2.10;1.90;;;;;;;18.94;36.93;95985.44;5114491;28;20206;-66
2022/05/19 11:05:29;;;;;;;2.13;1.67;;;;;;;18.98;35.18;95983.47;5115611;28;20183;-66
2022/05/19 11:08:02;;;;;;;2.38;2.15;;;;;;;19.08;36.97;95979.19;5115606;28;20219;-66
2022/05/19 11:10:37;;;;;;;4.20;2.47;;;;;;;19.21;37.59;95972.91;5115198;28;20542;-66
2022/05/19 11:13:16;;;;;;;2.70;1.90;;;;;;;19.15;34.47;95988.44;5115604;28;20236;-66
2022/05/19 11:15:48;;;;;;;2.38;1.80;;;;;;;19.16;34.85;95981.63;5114915;28;20219;-66
2022/05/19 11:18:21;;;;;;;2.10;1.90;;;;;;;19.10;35.62;95969.22;5114548;28;20195;-66
2022/05/19 11:21:04;;;;;;;2.67;1.90;;;;;;;19.22;36.44;95968.13;5115048;28;20642;-66
2022/05/19 11:23:39;;;;;;;2.13;1.92;;;;;;;19.17;34.82;95968.44;5115081;28;20191;-66
2022/05/19 11:26:25;;;;;;;2.33;1.77;;;;;;;19.07;34.00;95958.00;5114571;28;20199;-67
2022/05/19 11:29:14;;;;;;;1.80;1.70;;;;;;;19.17;33.38;95951.69;5114136;28;20196;-66
2022/05/19 11:31:44;;;;;;;3.20;2.05;;;;;;;19.26;34.83;95954.16;5103585;28;20207;-66
2022/05/19 11:34:18;;;;;;;3.95;1.90;;;;;;;19.35;36.32;95946.22;5115537;28;20180;-66
2022/05/19 11:36:52;;;;;;;3.95;1.80;;;;;;;19.44;34.90;95946.69;5114993;28;20179;-66
2022/05/19 11:39:23;;;;;;;2.20;2.00;;;;;;;19.54;33.57;95942.38;5115236;28;20208;-66
2022/05/19 11:41:50;;;;;;;2.22;2.03;;;;;;;19.59;31.17;95942.00;5114968;28;20239;-66
2022/05/19 11:44:22;;;;;;;3.05;1.98;;;;;;;19.59;32.55;95931.59;5114485;28;20199;-66
2022/05/19 11:46:53;;;;;;;3.60;1.90;;;;;;;19.68;33.15;95934.06;5114408;28;20188;-66
2022/05/19 11:55:18;;;;;;;3.45;2.03;;;;;;;19.91;32.06;95928.22;5115038;28;20281;-66
2022/05/19 11:57:56;;;;;;;3.60;3.05;;;;;;;19.86;32.57;95912.59;5116091;28;20202;-66
2022/05/19 12:00:26;;;;;;;2.13;1.90;;;;;;;19.94;32.78;95913.44;5118889;28;20264;-66
2022/05/19 12:02:57;;;;;;;3.33;1.98;;;;;;;20.00;31.50;95903.44;5118915;27;20199;-67
2022/05/19 12:05:31;;;;;;;1.80;1.70;;;;;;;20.08;33.71;95901.47;5118243;28;20192;-66